createdAt,value
2017-09-15T00:00:39.754Z,83.6
2017-09-15T00:01:20.323Z,83.69
2017-09-15T00:02:00.868Z,83.6
2017-09-15T00:02:41.427Z,83.69
2017-09-15T00:03:21.991Z,83.03
2017-09-15T00:04:02.532Z,83.5
2017-09-15T00:04:43.116Z,83.79
2017-09-15T00:05:23.688Z,83.69
2017-09-15T00:06:04.255Z,83.4
2017-09-15T00:06:45.522Z,83.4
2017-09-15T00:07:26.097Z,83.69
2017-09-15T00:08:06.691Z,83.83
2017-09-15T00:08:47.281Z,83.79
2017-09-15T00:09:27.850Z,83.03
2017-09-15T00:10:08.428Z,83.12
2017-09-15T00:10:48.974Z,82.83
2017-09-15T00:11:29.534Z,83.22
2017-09-15T00:12:10.117Z,83.31
2017-09-15T00:12:50.702Z,83.5
2017-09-15T00:13:31.249Z,83.31
2017-09-15T00:14:11.808Z,83.26
2017-09-15T00:14:52.365Z,83.12
2017-09-15T00:15:32.937Z,82.93
2017-09-15T00:16:13.478Z,83.12
2017-09-15T00:16:54.023Z,83.69
2017-09-15T00:17:34.593Z,83.64
2017-09-15T00:18:15.898Z,83.93
2017-09-15T00:18:56.461Z,84.02
2017-09-15T00:19:37.039Z,83.83
2017-09-15T00:20:17.605Z,83.83
2017-09-15T00:20:58.209Z,83.73
2017-09-15T00:21:38.763Z,83.26
2017-09-15T00:22:19.328Z,83.16
2017-09-15T00:22:59.898Z,83.4
2017-09-15T00:23:40.438Z,83.64
2017-09-15T00:24:21.000Z,83.64
2017-09-15T00:25:01.540Z,83.64
2017-09-15T00:25:42.103Z,83.54
2017-09-15T00:26:22.659Z,83.06
2017-09-15T00:27:03.224Z,83.83
2017-09-15T00:27:43.813Z,83.36
2017-09-15T00:28:24.403Z,83.54
2017-09-15T00:29:04.977Z,83.73
2017-09-15T00:29:45.594Z,83.54
2017-09-15T00:30:26.159Z,83.54
2017-09-15T00:31:06.709Z,83.54
2017-09-15T00:31:47.297Z,83.36
2017-09-15T00:32:27.861Z,83.54
2017-09-15T00:33:08.437Z,83.93
2017-09-15T00:33:49.000Z,83.93
2017-09-15T00:34:29.543Z,83.06
2017-09-15T00:35:10.107Z,82.2
2017-09-15T00:35:50.684Z,83.06
2017-09-15T00:36:31.246Z,83.22
2017-09-15T00:37:11.815Z,83.06
2017-09-15T00:37:52.381Z,83.45
2017-09-15T00:38:32.955Z,83.06
2017-09-15T00:39:13.513Z,83.45
2017-09-15T00:39:54.070Z,83.45
2017-09-15T00:40:34.663Z,83.16
2017-09-15T00:41:15.227Z,83.69
2017-09-15T00:41:55.794Z,83.73
2017-09-15T00:42:36.359Z,83.64
2017-09-15T00:43:16.939Z,83.73
2017-09-15T00:43:57.502Z,83.83
2017-09-15T00:44:38.064Z,84.02
2017-09-15T00:45:18.625Z,83.64
2017-09-15T00:45:59.189Z,83.45
2017-09-15T00:46:39.751Z,83.83
2017-09-15T00:47:20.311Z,84.79
2017-09-15T00:48:00.890Z,83.64
2017-09-15T00:48:41.462Z,83.64
2017-09-15T00:49:22.038Z,84.02
2017-09-15T00:50:02.585Z,83.64
2017-09-15T00:50:43.155Z,83.73
2017-09-15T00:51:23.731Z,84.12
2017-09-15T00:52:04.297Z,84.46
2017-09-15T00:52:44.869Z,84.46
2017-09-15T00:53:25.437Z,84.22
2017-09-15T00:54:06.004Z,83.69
2017-09-15T00:54:46.580Z,83.89
2017-09-15T00:55:27.154Z,83.98
2017-09-15T00:56:07.703Z,83.98
2017-09-15T00:56:48.271Z,84.36
2017-09-15T00:57:28.837Z,84.65
2017-09-15T00:58:09.402Z,84.36
2017-09-15T00:58:49.965Z,84.27
2017-09-15T00:59:30.538Z,84.36
2017-09-15T01:00:11.106Z,84.94
2017-09-15T01:00:51.679Z,83.89
2017-09-15T01:01:32.249Z,84.08
2017-09-15T01:02:12.810Z,84.65
2017-09-15T01:02:53.370Z,85.13
2017-09-15T01:03:33.922Z,84.65
2017-09-15T01:04:14.480Z,84.55
2017-09-15T01:04:55.044Z,84.65
2017-09-15T01:05:35.611Z,84.27
2017-09-15T01:06:16.171Z,84.75
2017-09-15T01:06:56.726Z,84.65
2017-09-15T01:07:37.297Z,84.65
2017-09-15T01:08:17.873Z,84.84
2017-09-15T01:08:58.436Z,84.27
2017-09-15T01:09:39.006Z,84.36
2017-09-15T01:10:19.584Z,83.98
2017-09-15T01:11:00.156Z,84.65
2017-09-15T01:11:40.726Z,84.65
2017-09-15T01:12:21.286Z,84.55
2017-09-15T01:13:01.849Z,84.65
2017-09-15T01:13:42.425Z,84.84
2017-09-15T01:14:22.976Z,84.65
2017-09-15T01:15:03.534Z,84.65
2017-09-15T01:15:44.093Z,84.84
2017-09-15T01:16:24.658Z,84.75
2017-09-15T01:17:05.218Z,84.08
2017-09-15T01:17:45.805Z,83.89
2017-09-15T01:18:26.381Z,84.08
2017-09-15T01:19:06.938Z,84.65
2017-09-15T01:19:47.494Z,84.27
2017-09-15T01:20:28.069Z,84.46
2017-09-15T01:21:08.620Z,85.03
2017-09-15T01:21:49.177Z,84.94
2017-09-15T01:22:29.749Z,84.84
2017-09-15T01:23:10.311Z,84.55
2017-09-15T01:23:50.876Z,84.65
2017-09-15T01:24:31.450Z,84.08
2017-09-15T01:25:12.017Z,84.36
2017-09-15T01:25:52.587Z,83.98
2017-09-15T01:26:33.151Z,83.6
2017-09-15T01:27:13.700Z,83.6
2017-09-15T01:27:54.259Z,84.36
2017-09-15T01:28:34.828Z,84.65
2017-09-15T01:29:15.392Z,84.46
2017-09-15T01:29:55.963Z,84.65
2017-09-15T01:30:36.521Z,84.65
2017-09-15T01:31:17.096Z,84.36
2017-09-15T01:31:57.654Z,84.55
2017-09-15T01:32:38.231Z,84.36
2017-09-15T01:33:18.806Z,84.08
2017-09-15T01:33:59.371Z,84.27
2017-09-15T01:34:39.929Z,84.17
2017-09-15T01:35:20.483Z,83.98
2017-09-15T01:36:01.044Z,83.79
2017-09-15T01:36:41.602Z,84.08
2017-09-15T01:37:22.167Z,84.27
2017-09-15T01:38:02.724Z,83.69
2017-09-15T01:38:43.291Z,84.46
2017-09-15T01:39:23.866Z,84.27
2017-09-15T01:40:04.432Z,84.55
2017-09-15T01:40:44.989Z,84.46
2017-09-15T01:41:25.567Z,84.27
2017-09-15T01:42:06.141Z,84.36
2017-09-15T01:42:46.701Z,84.46
2017-09-15T01:43:27.272Z,84.36
2017-09-15T01:44:07.839Z,84.46
2017-09-15T01:44:48.392Z,83.31
2017-09-15T01:45:28.974Z,83.12
2017-09-15T01:46:09.531Z,84.08
2017-09-15T01:46:50.085Z,84.27
2017-09-15T01:47:30.652Z,84.17
2017-09-15T01:48:11.221Z,83.89
2017-09-15T01:48:51.788Z,84.08
2017-09-15T01:49:32.349Z,84.46
2017-09-15T01:50:12.908Z,84.27
2017-09-15T01:50:53.489Z,84.46
2017-09-15T01:51:34.052Z,83.6
2017-09-15T01:52:14.607Z,83.6
2017-09-15T01:52:55.169Z,83.69
2017-09-15T01:53:35.746Z,84.36
2017-09-15T01:54:16.306Z,83.69
2017-09-15T01:54:56.866Z,83.12
2017-09-15T01:55:37.426Z,84.46
2017-09-15T01:56:17.997Z,84.36
2017-09-15T01:56:58.561Z,84.55
2017-09-15T01:57:39.118Z,84.08
2017-09-15T01:58:19.681Z,83.5
2017-09-15T01:59:00.244Z,83.89
2017-09-15T01:59:40.817Z,83.89
2017-09-15T02:00:21.389Z,84.65
2017-09-15T02:01:01.961Z,85.22
2017-09-15T02:01:42.520Z,84.65
2017-09-15T02:02:23.075Z,84.17
2017-09-15T02:03:03.640Z,84.36
2017-09-15T02:03:44.205Z,83.79
2017-09-15T02:04:24.767Z,84.46
2017-09-15T02:05:05.323Z,84.08
2017-09-15T02:05:45.900Z,84.36
2017-09-15T02:06:26.467Z,84.08
2017-09-15T02:07:07.027Z,84.94
2017-09-15T02:07:47.588Z,84.75
2017-09-15T02:08:28.165Z,83.79
2017-09-15T02:09:08.710Z,83.98
2017-09-15T02:09:49.266Z,83.6
2017-09-15T02:10:29.832Z,84.17
2017-09-15T02:11:10.402Z,84.27
2017-09-15T02:11:50.968Z,84.55
2017-09-15T02:12:31.539Z,84.17
2017-09-15T02:13:12.105Z,84.36
2017-09-15T02:13:52.654Z,84.27
2017-09-15T02:14:33.217Z,83.79
2017-09-15T02:15:13.770Z,83.69
2017-09-15T02:15:54.336Z,83.69
2017-09-15T02:16:34.894Z,83.69
2017-09-15T02:17:15.442Z,83.6
2017-09-15T02:17:55.995Z,83.69
2017-09-15T02:18:36.537Z,84.17
2017-09-15T02:19:17.083Z,83.89
2017-09-15T02:19:57.639Z,84.27
2017-09-15T02:20:38.190Z,84.36
2017-09-15T02:21:18.728Z,83.69
2017-09-15T02:21:59.308Z,84.65
2017-09-15T02:22:39.894Z,84.08
2017-09-15T02:23:20.468Z,84.27
2017-09-15T02:24:01.022Z,84.46
2017-09-15T02:24:41.583Z,83.98
2017-09-15T02:25:22.149Z,84.46
2017-09-15T02:26:02.703Z,84.55
2017-09-15T02:26:43.262Z,84.27
2017-09-15T02:27:23.834Z,84.17
2017-09-15T02:28:04.394Z,84.27
2017-09-15T02:28:44.949Z,83.89
2017-09-15T02:29:25.511Z,84.08
2017-09-15T02:30:06.083Z,84.36
2017-09-15T02:30:46.657Z,84.75
2017-09-15T02:31:27.208Z,84.27
2017-09-15T02:32:07.764Z,84.17
2017-09-15T02:32:48.326Z,84.08
2017-09-15T02:33:28.893Z,84.46
2017-09-15T02:34:09.459Z,83.98
2017-09-15T02:34:50.036Z,84.27
2017-09-15T02:35:30.586Z,84.27
2017-09-15T02:36:11.154Z,84.27
2017-09-15T02:36:51.719Z,84.46
2017-09-15T02:37:32.275Z,83.98
2017-09-15T02:38:12.844Z,84.27
2017-09-15T02:38:53.406Z,84.46
2017-09-15T02:39:33.961Z,84.27
2017-09-15T02:40:14.519Z,84.17
2017-09-15T02:40:55.076Z,83.69
2017-09-15T02:41:35.642Z,84.65
2017-09-15T02:42:16.218Z,83.89
2017-09-15T02:42:56.764Z,83.5
2017-09-15T02:43:37.329Z,84.36
2017-09-15T02:44:17.903Z,83.89
2017-09-15T02:44:58.459Z,84.27
2017-09-15T02:45:39.021Z,84.46
2017-09-15T02:46:19.577Z,84.36
2017-09-15T02:47:00.137Z,84.36
2017-09-15T02:47:40.709Z,83.89
2017-09-15T02:48:21.270Z,84.27
2017-09-15T02:49:01.856Z,84.55
2017-09-15T02:49:42.416Z,83.89
2017-09-15T02:50:22.979Z,83.89
2017-09-15T02:51:03.540Z,84.08
2017-09-15T02:51:44.105Z,83.98
2017-09-15T02:52:24.668Z,83.98
2017-09-15T02:53:05.240Z,84.17
2017-09-15T02:53:45.797Z,83.98
2017-09-15T02:54:26.365Z,84.84
2017-09-15T02:55:06.934Z,85.32
2017-09-15T02:55:47.491Z,84.08
2017-09-15T02:56:28.045Z,84.08
2017-09-15T02:57:08.612Z,84.46
2017-09-15T02:57:49.172Z,84.84
2017-09-15T02:58:29.721Z,83.89
2017-09-15T02:59:10.280Z,84.36
2017-09-15T02:59:50.846Z,83.98
2017-09-15T03:00:31.406Z,83.98
2017-09-15T03:01:11.975Z,84.27
2017-09-15T03:01:52.543Z,83.69
2017-09-15T03:02:33.098Z,84.65
2017-09-15T03:03:13.650Z,83.69
2017-09-15T03:03:54.211Z,84.17
2017-09-15T03:04:34.788Z,84.46
2017-09-15T03:05:15.341Z,84.65
2017-09-15T03:05:55.922Z,84.17
2017-09-15T03:06:36.485Z,84.27
2017-09-15T03:07:17.039Z,84.36
2017-09-15T03:07:57.600Z,84.08
2017-09-15T03:08:38.163Z,84.17
2017-09-15T03:09:18.739Z,84.08
2017-09-15T03:09:59.302Z,84.46
2017-09-15T03:10:39.869Z,84.46
2017-09-15T03:11:20.436Z,84.46
2017-09-15T03:12:00.995Z,83.89
2017-09-15T03:12:41.564Z,83.98
2017-09-15T03:13:22.124Z,84.55
2017-09-15T03:14:02.702Z,84.27
2017-09-15T03:14:43.260Z,83.83
2017-09-15T03:15:23.828Z,83.69
2017-09-15T03:16:04.404Z,84.27
2017-09-15T03:16:44.979Z,84.5
2017-09-15T03:17:25.534Z,84.02
2017-09-15T03:18:06.105Z,83.83
2017-09-15T03:18:46.657Z,83.83
2017-09-15T03:19:27.223Z,83.64
2017-09-15T03:20:07.791Z,83.54
2017-09-15T03:20:48.363Z,83.73
2017-09-15T03:21:28.934Z,83.73
2017-09-15T03:22:09.496Z,83.64
2017-09-15T03:22:50.051Z,83.54
2017-09-15T03:23:30.628Z,83.36
2017-09-15T03:24:11.199Z,83.54
2017-09-15T03:24:51.773Z,83.06
2017-09-15T03:25:32.336Z,83.16
2017-09-15T03:26:12.916Z,83.06
2017-09-15T03:26:53.475Z,83.06
2017-09-15T03:27:34.040Z,83.36
2017-09-15T03:28:14.602Z,83.45
2017-09-15T03:28:55.170Z,83.26
2017-09-15T03:29:35.729Z,83.26
2017-09-15T03:30:16.282Z,83.16
2017-09-15T03:30:56.838Z,83.54
2017-09-15T03:31:37.378Z,83.26
2017-09-15T03:32:17.946Z,83.36
2017-09-15T03:32:58.512Z,83.54
2017-09-15T03:33:39.075Z,83.64
2017-09-15T03:34:19.640Z,83.54
2017-09-15T03:35:00.218Z,83.93
2017-09-15T03:35:40.768Z,83.73
2017-09-15T03:36:21.328Z,83.54
2017-09-15T03:37:01.898Z,83.45
2017-09-15T03:37:42.448Z,83.06
2017-09-15T03:38:23.021Z,83.36
2017-09-15T03:39:03.571Z,83.83
2017-09-15T03:39:44.152Z,82.68
2017-09-15T03:40:24.722Z,83.54
2017-09-15T03:41:05.266Z,83.64
2017-09-15T03:41:45.826Z,83.73
2017-09-15T03:42:26.398Z,83.73
2017-09-15T03:43:06.955Z,83.73
2017-09-15T03:43:47.523Z,83.64
2017-09-15T03:44:28.086Z,83.93
2017-09-15T03:45:08.657Z,83.64
2017-09-15T03:45:49.225Z,83.45
2017-09-15T03:46:29.786Z,83.36
2017-09-15T03:47:10.361Z,83.26
2017-09-15T03:47:50.921Z,83.59
2017-09-15T03:48:31.469Z,83.36
2017-09-15T03:49:12.032Z,83.54
2017-09-15T03:49:52.599Z,83.73
2017-09-15T03:50:33.169Z,83.54
2017-09-15T03:51:13.728Z,83.06
2017-09-15T03:51:54.294Z,83.16
2017-09-15T03:52:34.868Z,83.39
2017-09-15T03:53:15.420Z,83.3
2017-09-15T03:53:55.996Z,83.16
2017-09-15T03:54:36.559Z,83.54
2017-09-15T03:55:17.124Z,83.11
2017-09-15T03:55:57.684Z,83.11
2017-09-15T03:56:38.248Z,83.26
2017-09-15T03:57:18.817Z,83.49
2017-09-15T03:57:59.377Z,83.36
2017-09-15T03:58:39.932Z,83.73
2017-09-15T03:59:20.489Z,83.73
2017-09-15T04:00:01.054Z,83.06
2017-09-15T04:00:41.622Z,83.06
2017-09-15T04:01:22.185Z,83.11
2017-09-15T04:02:02.750Z,82.43
2017-09-15T04:02:43.315Z,83.64
2017-09-15T04:03:23.865Z,83.2
2017-09-15T04:04:04.442Z,83.78
2017-09-15T04:04:45.015Z,83.2
2017-09-15T04:05:25.570Z,82.92
2017-09-15T04:06:06.200Z,83.39
2017-09-15T04:06:46.731Z,83.49
2017-09-15T04:07:27.293Z,83.49
2017-09-15T04:08:07.850Z,83.68
2017-09-15T04:08:48.404Z,84.12
2017-09-15T04:09:28.966Z,83.78
2017-09-15T04:10:09.553Z,83.11
2017-09-15T04:10:50.118Z,83.68
2017-09-15T04:11:30.684Z,83.59
2017-09-15T04:12:11.240Z,83.73
2017-09-15T04:12:51.800Z,83.54
2017-09-15T04:13:32.355Z,83.73
2017-09-15T04:14:12.919Z,83.64
2017-09-15T04:14:53.498Z,83.16
2017-09-15T04:15:34.082Z,83.97
2017-09-15T04:16:14.655Z,83.93
2017-09-15T04:16:55.228Z,83.64
2017-09-15T04:17:35.794Z,83.64
2017-09-15T04:18:16.384Z,83.64
2017-09-15T04:18:56.945Z,83.2
2017-09-15T04:19:37.517Z,83.83
2017-09-15T04:20:18.089Z,83.93
2017-09-15T04:20:58.646Z,83.49
2017-09-15T04:21:39.212Z,83.39
2017-09-15T04:22:19.771Z,84.06
2017-09-15T04:23:00.334Z,83.93
2017-09-15T04:23:40.909Z,83.73
2017-09-15T04:24:21.483Z,83.87
2017-09-15T04:25:02.061Z,83.54
2017-09-15T04:25:42.641Z,83.83
2017-09-15T04:26:23.201Z,83.93
2017-09-15T04:27:03.750Z,84.5
2017-09-15T04:27:44.303Z,83.45
2017-09-15T04:28:24.868Z,83.78
2017-09-15T04:29:05.430Z,83.64
2017-09-15T04:29:45.985Z,83.73
2017-09-15T04:30:26.556Z,84.02
2017-09-15T04:31:07.121Z,84.26
2017-09-15T04:31:47.691Z,84.31
2017-09-15T04:32:28.241Z,84.22
2017-09-15T04:33:08.811Z,84.02
2017-09-15T04:33:49.387Z,84.59
2017-09-15T04:34:29.960Z,84.59
2017-09-15T04:35:10.529Z,84.31
2017-09-15T04:35:51.088Z,84.5
2017-09-15T04:36:31.639Z,84.83
2017-09-15T04:37:12.195Z,84.02
2017-09-15T04:37:52.766Z,84.31
2017-09-15T04:38:33.327Z,83.93
2017-09-15T04:39:13.915Z,83.73
2017-09-15T04:39:54.488Z,84.41
2017-09-15T04:40:35.073Z,84.16
2017-09-15T04:41:15.625Z,84.45
2017-09-15T04:41:56.185Z,84.45
2017-09-15T04:42:36.742Z,84.26
2017-09-15T04:43:17.306Z,83.93
2017-09-15T04:43:57.877Z,84.55
2017-09-15T04:44:38.451Z,84.74
2017-09-15T04:45:19.019Z,83.68
2017-09-15T04:45:59.583Z,83.59
2017-09-15T04:46:40.142Z,83.97
2017-09-15T04:47:20.702Z,84.06
2017-09-15T04:48:01.268Z,83.59
2017-09-15T04:48:41.829Z,83.78
2017-09-15T04:49:22.391Z,83.68
2017-09-15T04:50:02.957Z,83.78
2017-09-15T04:50:43.524Z,83.78
2017-09-15T04:51:24.104Z,83.78
2017-09-15T04:52:04.626Z,83.16
2017-09-15T04:52:45.195Z,83.45
2017-09-15T04:53:25.764Z,83.06
2017-09-15T04:54:06.331Z,83.54
2017-09-15T04:54:46.901Z,83.36
2017-09-15T04:55:27.464Z,83.39
2017-09-15T04:56:08.028Z,83.59
2017-09-15T04:56:48.598Z,83.54
2017-09-15T04:57:29.155Z,83.54
2017-09-15T04:58:09.725Z,83.64
2017-09-15T04:58:50.285Z,83.11
2017-09-15T04:59:30.866Z,82.97
2017-09-15T05:00:11.431Z,83.73
2017-09-15T05:00:51.997Z,83.54
2017-09-15T05:01:32.557Z,83.87
2017-09-15T05:02:13.125Z,83.83
2017-09-15T05:02:53.695Z,83.59
2017-09-15T05:03:34.266Z,83.93
2017-09-15T05:04:14.826Z,83.73
2017-09-15T05:04:55.390Z,83.93
2017-09-15T05:05:35.958Z,83.83
2017-09-15T05:06:16.542Z,83.26
2017-09-15T05:06:57.097Z,83.73
2017-09-15T05:07:37.671Z,83.73
2017-09-15T05:08:18.221Z,83.73
2017-09-15T05:08:58.840Z,83.64
2017-09-15T05:09:39.352Z,83.73
2017-09-15T05:10:19.924Z,83.73
2017-09-15T05:11:00.499Z,84.5
2017-09-15T05:11:41.058Z,84.5
2017-09-15T05:12:21.626Z,84.22
2017-09-15T05:13:02.187Z,84.22
2017-09-15T05:13:42.752Z,83.83
2017-09-15T05:14:23.312Z,83.93
2017-09-15T05:15:03.872Z,84.5
2017-09-15T05:15:44.446Z,84.41
2017-09-15T05:16:25.006Z,83.83
2017-09-15T05:17:05.575Z,84.02
2017-09-15T05:17:46.142Z,84.69
2017-09-15T05:18:26.705Z,84.5
2017-09-15T05:19:07.268Z,83.54
2017-09-15T05:19:47.851Z,84.31
2017-09-15T05:20:28.411Z,84.02
2017-09-15T05:21:08.968Z,84.12
2017-09-15T05:21:49.536Z,84.5
2017-09-15T05:22:30.112Z,83.83
2017-09-15T05:23:10.661Z,84.55
2017-09-15T05:23:51.223Z,84.69
2017-09-15T05:24:31.785Z,84.26
2017-09-15T05:25:12.353Z,84.31
2017-09-15T05:25:52.932Z,84.26
2017-09-15T05:26:33.498Z,84.45
2017-09-15T05:27:14.061Z,84.16
2017-09-15T05:27:54.622Z,84.64
2017-09-15T05:28:35.187Z,85.31
2017-09-15T05:29:15.740Z,85.21
2017-09-15T05:29:56.295Z,85.21
2017-09-15T05:30:36.857Z,84.92
2017-09-15T05:31:17.422Z,84.55
2017-09-15T05:31:57.990Z,83.97
2017-09-15T05:32:38.550Z,83.97
2017-09-15T05:33:19.124Z,84.16
2017-09-15T05:33:59.684Z,84.83
2017-09-15T05:34:40.245Z,84.83
2017-09-15T05:35:20.799Z,84.64
2017-09-15T05:36:01.361Z,84.74
2017-09-15T05:36:41.927Z,84.64
2017-09-15T05:37:22.491Z,84.35
2017-09-15T05:38:03.063Z,85.31
2017-09-15T05:38:43.622Z,86.17
2017-09-15T05:39:24.192Z,85.6
2017-09-15T05:40:04.770Z,85.6
2017-09-15T05:40:45.324Z,85.41
2017-09-15T05:41:26.093Z,86.27
2017-09-15T05:42:06.530Z,86.6
2017-09-15T05:42:47.087Z,86.08
2017-09-15T05:43:27.647Z,86.79
2017-09-15T05:44:08.230Z,86.41
2017-09-15T05:44:48.755Z,85.93
2017-09-15T05:45:29.322Z,85.74
2017-09-15T05:46:09.910Z,87.65
2017-09-15T05:46:50.466Z,91.96
2017-09-15T05:47:31.011Z,95.12
2017-09-15T05:48:11.751Z,94.26
2017-09-15T05:48:52.148Z,92.73
2017-09-15T05:49:32.706Z,92.35
2017-09-15T05:50:13.265Z,92.21
2017-09-15T05:50:53.793Z,92.25
2017-09-15T05:51:34.334Z,91.72
2017-09-15T05:52:14.886Z,90.48
2017-09-15T05:52:55.446Z,88.03
2017-09-15T05:53:36.028Z,86.88
2017-09-15T05:54:16.592Z,86.21
2017-09-15T05:54:57.143Z,85.93
2017-09-15T05:55:37.699Z,85.64
2017-09-15T05:56:18.268Z,85.16
2017-09-15T05:56:58.827Z,84.68
2017-09-15T05:57:39.382Z,84.3
2017-09-15T05:58:19.950Z,83.82
2017-09-15T05:59:00.524Z,83.92
2017-09-15T05:59:41.073Z,84.01
2017-09-15T06:00:21.674Z,84.2
2017-09-15T06:01:02.240Z,84.78
2017-09-15T06:01:42.801Z,83.92
2017-09-15T06:02:23.362Z,83.72
2017-09-15T06:03:03.926Z,83.05
2017-09-15T06:03:44.485Z,83.15
2017-09-15T06:04:25.130Z,83.63
2017-09-15T06:05:05.703Z,83.92
2017-09-15T06:05:46.505Z,83.15
2017-09-15T06:06:27.089Z,83.25
2017-09-15T06:07:07.635Z,83.63
2017-09-15T06:07:48.206Z,83.05
2017-09-15T06:08:28.765Z,82.48
2017-09-15T06:09:09.345Z,82.29
2017-09-15T06:09:49.892Z,82.19
2017-09-15T06:10:30.434Z,82.19
2017-09-15T06:11:10.977Z,82.29
2017-09-15T06:11:51.521Z,82
2017-09-15T06:12:32.080Z,82.38
2017-09-15T06:13:12.641Z,82.38
2017-09-15T06:13:53.200Z,81.9
2017-09-15T06:14:33.764Z,83.34
2017-09-15T06:15:14.349Z,83.15
2017-09-15T06:15:54.919Z,82.29
2017-09-15T06:16:35.487Z,82.86
2017-09-15T06:17:16.039Z,86.02
2017-09-15T06:17:56.622Z,95.07
2017-09-15T06:18:37.189Z,96.22
2017-09-15T06:19:17.718Z,96.7
2017-09-15T06:19:58.263Z,96.89
2017-09-15T06:20:38.846Z,96.42
2017-09-15T06:21:19.407Z,95.56
2017-09-15T06:21:59.971Z,96.7
2017-09-15T06:22:41.434Z,97.71
2017-09-15T06:23:21.994Z,93.68
2017-09-15T06:24:02.569Z,95.51
2017-09-15T06:24:43.123Z,97.71
2017-09-15T06:25:23.732Z,92.82
2017-09-15T06:26:04.284Z,88.79
2017-09-15T06:26:44.828Z,85.92
2017-09-15T06:27:25.359Z,91.77
2017-09-15T06:28:05.916Z,97.04
2017-09-15T06:28:46.473Z,91.77
2017-09-15T06:29:27.027Z,86.11
2017-09-15T06:30:07.579Z,87.07
2017-09-15T06:30:48.108Z,86.72
2017-09-15T06:31:28.672Z,83.27
2017-09-15T06:32:09.215Z,82.03
2017-09-15T06:32:49.784Z,81.93
2017-09-15T06:33:30.550Z,81.45
2017-09-15T06:34:11.065Z,82.89
2017-09-15T06:34:51.624Z,86.05
2017-09-15T06:35:32.191Z,87.11
2017-09-15T06:36:12.759Z,91.86
2017-09-15T06:36:53.319Z,98.1
2017-09-15T06:37:33.876Z,94.45
2017-09-15T06:38:14.434Z,92.63
2017-09-15T06:38:54.990Z,95.36
2017-09-15T06:39:35.595Z,91.9
2017-09-15T06:40:16.181Z,92.1
2017-09-15T06:40:56.728Z,88.45
2017-09-15T06:41:37.300Z,93.92
2017-09-15T06:42:17.840Z,94.21
2017-09-15T06:42:58.423Z,93.82
2017-09-15T06:43:38.958Z,92.77
2017-09-15T06:44:19.548Z,85.85
2017-09-15T06:45:00.099Z,85.66
2017-09-15T06:45:40.680Z,87.92
2017-09-15T06:46:21.267Z,84.08
2017-09-15T06:47:01.826Z,84.89
2017-09-15T06:47:42.405Z,85.47
2017-09-15T06:48:22.974Z,82.4
2017-09-15T06:49:03.524Z,78.45
2017-09-15T06:49:44.059Z,78.45
2017-09-15T06:50:24.614Z,77.21
2017-09-15T06:51:05.196Z,76.15
2017-09-15T06:51:45.742Z,76.44
2017-09-15T06:52:26.317Z,74.62
2017-09-15T06:53:06.864Z,74.13
2017-09-15T06:53:47.434Z,75.77
2017-09-15T06:54:27.955Z,74.9
2017-09-15T06:55:08.504Z,74.13
2017-09-15T06:55:49.096Z,74.71
2017-09-15T06:56:29.639Z,75.13
2017-09-15T06:57:10.227Z,73.75
2017-09-15T06:57:50.771Z,73.18
2017-09-15T06:58:31.313Z,73.94
2017-09-15T06:59:11.863Z,73.5
2017-09-15T06:59:52.481Z,73.69
2017-09-15T07:00:33.041Z,74.17
2017-09-15T07:01:13.590Z,73.6
2017-09-15T07:01:54.132Z,73.92
2017-09-15T07:02:34.703Z,76.81
2017-09-15T07:03:15.274Z,81.61
2017-09-15T07:03:55.816Z,87.29
2017-09-15T07:04:36.385Z,89.21
2017-09-15T07:05:16.931Z,88.49
2017-09-15T07:05:57.489Z,92.91
2017-09-15T07:06:38.052Z,89.45
2017-09-15T07:07:18.603Z,85.41
2017-09-15T07:07:59.163Z,80.8
2017-09-15T07:08:39.704Z,82.73
2017-09-15T07:09:20.287Z,84.17
2017-09-15T07:10:00.816Z,86.57
2017-09-15T07:10:41.344Z,87.15
2017-09-15T07:11:22.021Z,81.19
2017-09-15T07:12:02.582Z,77.09
2017-09-15T07:12:43.121Z,74.6
2017-09-15T07:13:23.657Z,73.63
2017-09-15T07:14:04.221Z,72.8
2017-09-15T07:14:44.790Z,72.67
2017-09-15T07:15:25.364Z,71.46
2017-09-15T07:16:05.943Z,72
2017-09-15T07:16:46.708Z,68.25
2017-09-15T07:17:27.348Z,70.84
2017-09-15T07:18:07.916Z,83.44
2017-09-15T07:18:48.484Z,89.54
2017-09-15T07:19:29.000Z,87.52
2017-09-15T07:20:09.574Z,84.73
2017-09-15T07:20:50.180Z,84.01
2017-09-15T07:21:30.673Z,92.86
2017-09-15T07:22:11.254Z,88.15
2017-09-15T07:22:51.821Z,83.19
2017-09-15T07:23:32.373Z,79.73
2017-09-15T07:24:12.959Z,76.26
2017-09-15T07:24:53.515Z,82.42
2017-09-15T07:25:34.061Z,79.44
2017-09-15T07:26:14.628Z,86.94
2017-09-15T07:26:55.188Z,88.1
2017-09-15T07:27:35.757Z,87.81
2017-09-15T07:28:16.323Z,91.27
2017-09-15T07:28:56.896Z,93.38
2017-09-15T07:29:37.447Z,85.6
2017-09-15T07:30:18.032Z,83.67
2017-09-15T07:30:58.590Z,84.06
2017-09-15T07:31:39.155Z,90.12
2017-09-15T07:32:19.733Z,79.44
2017-09-15T07:33:00.300Z,78.48
2017-09-15T07:33:40.869Z,81.56
2017-09-15T07:34:21.418Z,79.05
2017-09-15T07:35:02.000Z,80.3
2017-09-15T07:35:42.550Z,89.64
2017-09-15T07:36:23.122Z,89.06
2017-09-15T07:37:03.691Z,82.42
2017-09-15T07:37:44.267Z,86.79
2017-09-15T07:38:24.834Z,87.42
2017-09-15T07:39:05.393Z,81.4
2017-09-15T07:39:45.952Z,75.82
2017-09-15T07:40:26.507Z,73.32
2017-09-15T07:41:07.098Z,71.3
2017-09-15T07:41:47.661Z,68.32
2017-09-15T07:42:28.228Z,67.71
2017-09-15T07:43:08.779Z,68.38
2017-09-15T07:43:49.329Z,68.67
2017-09-15T07:44:29.892Z,68.19
2017-09-15T07:45:10.488Z,67.99
2017-09-15T07:45:51.042Z,66.94
2017-09-15T07:46:31.615Z,67.22
2017-09-15T07:47:12.179Z,67.1
2017-09-15T07:47:52.746Z,69.6
2017-09-15T07:48:33.316Z,67.38
2017-09-15T07:49:13.856Z,68.15
2017-09-15T07:49:54.422Z,69.92
2017-09-15T07:50:34.989Z,69.73
2017-09-15T07:51:15.571Z,68.57
2017-09-15T07:51:56.133Z,67.99
2017-09-15T07:52:36.699Z,74.54
2017-09-15T07:53:17.253Z,75.4
2017-09-15T07:53:57.819Z,70.68
2017-09-15T07:54:38.392Z,75.4
2017-09-15T07:55:18.949Z,77.71
2017-09-15T07:55:59.520Z,77.81
2017-09-15T07:56:40.096Z,84.83
2017-09-15T07:57:20.626Z,87.95
2017-09-15T07:58:01.186Z,84.39
2017-09-15T07:58:41.737Z,81.3
2017-09-15T07:59:22.292Z,78.71
2017-09-15T08:00:02.857Z,79.58
2017-09-15T08:00:43.409Z,81.3
2017-09-15T08:01:23.996Z,77.46
2017-09-15T08:02:04.559Z,83.04
2017-09-15T08:02:45.133Z,86.6
2017-09-15T08:03:25.705Z,82.65
2017-09-15T08:04:06.263Z,75.05
2017-09-15T08:04:46.839Z,71.01
2017-09-15T08:05:27.412Z,69.85
2017-09-15T08:06:07.984Z,70.43
2017-09-15T08:06:48.556Z,68.51
2017-09-15T08:07:29.129Z,68.32
2017-09-15T08:08:09.664Z,74.96
2017-09-15T08:08:50.212Z,74.96
2017-09-15T08:09:30.792Z,75.54
2017-09-15T08:10:11.343Z,76.88
2017-09-15T08:10:51.921Z,77.46
2017-09-15T08:11:32.501Z,71.97
2017-09-15T08:12:13.041Z,72.94
2017-09-15T08:12:53.619Z,73.32
2017-09-15T08:13:34.180Z,73.03
2017-09-15T08:14:14.776Z,77.65
2017-09-15T08:14:55.336Z,79.28
2017-09-15T08:15:35.898Z,78.61
2017-09-15T08:16:16.458Z,77.26
2017-09-15T08:16:57.027Z,74.09
2017-09-15T08:17:37.586Z,71.01
2017-09-15T08:18:18.232Z,70.34
2017-09-15T08:18:58.816Z,68.51
2017-09-15T08:19:39.398Z,68.32
2017-09-15T08:20:19.970Z,68.32
2017-09-15T08:21:00.539Z,68.41
2017-09-15T08:21:41.108Z,68.22
2017-09-15T08:22:21.668Z,68.6
2017-09-15T08:23:02.255Z,68.32
2017-09-15T08:23:42.808Z,68.32
2017-09-15T08:24:23.372Z,78.52
2017-09-15T08:25:03.938Z,80.06
2017-09-15T08:25:44.500Z,81.79
2017-09-15T08:26:25.073Z,84.77
2017-09-15T08:27:05.640Z,84.77
2017-09-15T08:27:46.204Z,85.25
2017-09-15T08:28:26.784Z,80.63
2017-09-15T08:29:07.348Z,85.1
2017-09-15T08:29:47.912Z,87.95
2017-09-15T08:30:28.479Z,85.74
2017-09-15T08:31:09.047Z,81.7
2017-09-15T08:31:49.634Z,86.89
2017-09-15T08:32:30.206Z,79.1
2017-09-15T08:33:10.772Z,83.04
2017-09-15T08:33:51.357Z,82.75
2017-09-15T08:34:31.928Z,80.44
2017-09-15T08:35:12.489Z,75.34
2017-09-15T08:35:53.066Z,74.96
2017-09-15T08:36:33.625Z,73.9
2017-09-15T08:37:14.185Z,70.24
2017-09-15T08:37:54.752Z,69.09
2017-09-15T08:38:35.318Z,69.09
2017-09-15T08:39:15.879Z,67.74
2017-09-15T08:39:56.443Z,68.22
2017-09-15T08:40:37.012Z,67.97
2017-09-15T08:41:17.584Z,68.06
2017-09-15T08:41:58.156Z,68.35
2017-09-15T08:42:38.705Z,68.64
2017-09-15T08:43:19.267Z,68.44
2017-09-15T08:43:59.834Z,66.91